Time;durP1;ratioP1;P1;durP2;ratioP2;P2;SDS_P1;SDS_P2;PMS_P1;PMS_P2;Temp;Humidity;BMP_temperature;BMP_pressure;BME280_temperature;BME280_humidity;BME280_pressure;Samples;Min_cycle;Max_cycle;Signal;HPM_P1;HPM_P2
2021/12/17 00:04:37;;;;;;;0.95;0.70;;;;;;;1.89;88.87;98559.13;4997802;28;20069;-77
2021/12/17 00:07:04;;;;;;;1.92;0.85;;;;;;;1.89;88.52;98563.38;4994884;28;20497;-77
2021/12/17 00:09:29;;;;;;;;;;;;;;;1.96;88.83;98565.16;5011734;28;20084;-77
2021/12/17 00:11:55;;;;;;;1.52;0.80;;;;;;;1.98;88.50;98563.50;5010580;28;19921;-78
2021/12/17 00:14:27;;;;;;;1.25;0.70;;;;;;;1.83;87.37;98563.28;4994728;28;20033;-78
2021/12/17 00:16:59;;;;;;;2.45;0.80;;;;;;;1.82;88.14;98570.09;4978447;28;20071;-76
2021/12/17 00:49:22;;;;;;;0.82;0.63;;;;;;;1.69;88.42;98592.09;4997181;28;20498;-77
2021/12/17 00:54:22;;;;;;;1.63;0.60;;;;;;;1.58;88.54;98590.22;4994030;28;20064;-77
2021/12/17 00:56:53;;;;;;;2.28;0.70;;;;;;;1.52;88.59;98596.97;4994817;28;20504;-77
2021/12/17 00:59:19;;;;;;;1.88;0.63;;;;;;;1.60;88.56;98596.22;4978060;28;20045;-77
2021/12/17 01:01:45;;;;;;;2.90;0.82;;;;;;;1.66;88.60;98596.31;4994234;28;20381;-77
2021/12/17 01:04:11;;;;;;;;;;;;;;;1.50;88.11;98588.41;4978096;28;20053;-77
2021/12/17 01:06:38;;;;;;;0.80;0.60;;;;;;;1.61;88.35;98587.72;4994062;28;19913;-77
2021/12/17 01:09:05;;;;;;;4.38;1.10;;;;;;;1.60;88.40;98594.50;5010415;28;20056;-77
2021/12/17 01:11:34;;;;;;;2.75;0.80;;;;;;;1.56;88.28;98584.22;4993816;28;20377;-76
2021/12/17 01:14:12;;;;;;;1.10;0.60;;;;;;;1.65;88.53;98582.69;5010318;28;20046;-76
2021/12/17 01:16:57;;;;;;;1.60;0.75;;;;;;;1.68;88.14;98589.50;5010634;28;20044;-76
2021/12/17 01:38:00;;;;;;;2.95;0.77;;;;;;;1.76;87.50;98593.03;4992466;28;20048;-77
2021/12/17 01:42:23;;;;;;;1.75;0.70;;;;;;;1.61;87.71;98582.63;4994461;28;20492;-76
2021/12/17 01:44:48;;;;;;;2.78;0.70;;;;;;;1.52;88.09;98585.91;4993552;28;20041;-77
2021/12/17 01:47:14;;;;;;;3.15;1.00;;;;;;;1.54;88.24;98586.75;4993437;28;20057;-77
2021/12/17 02:00:23;;;;;;;2.40;0.90;;;;;;;1.44;89.03;98590.88;5008456;28;20042;-77
2021/12/17 02:02:52;;;;;;;6.15;1.30;;;;;;;1.39;88.84;98589.09;4977265;28;20136;-77
2021/12/17 02:05:28;;;;;;;3.15;1.05;;;;;;;1.33;89.27;98582.22;4978744;28;20124;-79
2021/12/17 02:07:58;;;;;;;3.95;1.50;;;;;;;1.36;89.85;98587.34;4993172;28;20191;-78
2021/12/17 02:32:09;;;;;;;3.58;1.00;;;;;;;1.47;88.00;98597.75;4994559;28;20104;-76
2021/12/17 02:37:20;;;;;;;1.67;0.90;;;;;;;1.59;88.01;98594.50;5012990;28;19923;-76
2021/12/17 02:45:35;;;;;;;1.67;0.75;;;;;;;1.64;87.69;98595.41;4999020;28;20042;-76
2021/12/17 02:48:17;;;;;;;2.58;0.80;;;;;;;1.54;87.56;98589.31;4998072;28;20068;-76
2021/12/17 02:50:49;;;;;;;1.83;0.93;;;;;;;1.49;87.33;98598.63;4996336;28;20033;-76
2021/12/17 02:53:15;;;;;;;1.52;0.80;;;;;;;1.53;87.61;98605.50;4995819;28;20045;-76
2021/12/17 02:55:42;;;;;;;;;;;;;;;1.51;87.83;98602.94;4996729;28;20042;-76
2021/12/17 02:58:07;;;;;;;1.27;0.70;;;;;;;1.55;87.65;98592.72;5012789;28;20388;-77
2021/12/17 03:00:34;;;;;;;1.13;0.73;;;;;;;1.50;87.41;98600.31;4996223;28;20073;-77
2021/12/17 03:03:00;;;;;;;2.88;0.93;;;;;;;1.51;87.40;98596.94;4996324;28;20467;-77
2021/12/17 03:05:26;;;;;;;1.92;0.70;;;;;;;1.62;87.80;98592.00;4996253;28;20037;-76
2021/12/17 03:07:53;;;;;;;1.08;0.70;;;;;;;1.64;87.22;98595.41;4980025;28;20045;-77
2021/12/17 03:10:18;;;;;;;3.55;0.80;;;;;;;1.81;87.56;98593.97;4979853;28;20473;-76
2021/12/17 03:23:40;;;;;;;1.63;0.88;;;;;;;1.92;86.40;98594.94;4994835;28;20081;-77
2021/12/17 03:26:22;;;;;;;3.38;2.00;;;;;;;1.83;85.57;98594.81;4981722;28;20464;-77
2021/12/17 03:28:52;;;;;;;2.40;1.40;;;;;;;1.89;85.87;98599.19;4980176;28;20136;-77
2021/12/17 03:31:18;;;;;;;4.93;1.95;;;;;;;1.96;85.95;98594.16;4979801;28;20066;-77
2021/12/17 03:33:46;;;;;;;3.88;1.30;;;;;;;1.98;85.50;98597.59;4995909;28;20049;-76
2021/12/17 03:36:14;;;;;;;4.35;2.17;;;;;;;1.77;84.41;98594.75;4995823;28;20049;-76
2021/12/17 03:38:48;;;;;;;3.05;1.35;;;;;;;1.80;85.36;98592.25;4979392;28;20100;-77
2021/12/17 03:43:52;;;;;;;2.08;0.95;;;;;;;1.53;85.34;98596.13;4997076;28;20356;-77
2021/12/17 03:46:18;;;;;;;1.85;0.80;;;;;;;1.72;85.85;98592.13;4994883;28;20049;-76
2021/12/17 03:48:44;;;;;;;2.88;1.20;;;;;;;1.84;85.72;98596.56;4995514;28;20045;-77
2021/12/17 03:51:18;;;;;;;4.20;1.45;;;;;;;1.81;85.23;98593.09;4979005;28;20483;-77
2021/12/17 03:53:47;;;;;;;5.10;2.17;;;;;;;1.64;84.11;98596.28;4979186;28;20041;-77
2021/12/17 03:56:14;;;;;;;7.43;2.72;;;;;;;1.57;84.21;98591.06;4995139;28;20480;-76
2021/12/17 03:58:40;;;;;;;3.63;1.70;;;;;;;1.53;84.48;98585.91;4995089;28;20046;-77
2021/12/17 04:01:06;;;;;;;2.90;1.38;;;;;;;1.50;85.01;98596.06;5011542;28;20096;-76
2021/12/17 04:03:32;;;;;;;3.80;1.00;;;;;;;1.52;85.90;98608.91;4978901;28;20061;-76
2021/12/17 04:06:04;;;;;;;3.92;1.30;;;;;;;1.44;85.68;98603.66;4979765;28;20511;-76
2021/12/17 04:08:56;;;;;;;5.68;3.10;;;;;;;1.34;86.45;98603.50;4997874;28;20033;-76
2021/12/17 04:11:54;;;;;;;6.03;1.50;;;;;;;1.40;87.29;98601.88;4997734;28;20053;-77
2021/12/17 04:14:34;;;;;;;4.43;2.40;;;;;;;1.36;86.98;98600.13;4979579;28;20038;-78
2021/12/17 04:17:03;;;;;;;9.73;6.03;;;;;;;1.27;87.56;98603.38;4979767;28;20050;-78
2021/12/17 04:19:28;;;;;;;5.55;1.25;;;;;;;1.32;87.67;98600.91;4978852;28;20513;-76
2021/12/17 04:21:55;;;;;;;2.53;1.08;;;;;;;1.40;88.20;98599.34;4978697;28;20034;-77
2021/12/17 04:24:20;;;;;;;6.35;1.77;;;;;;;1.34;87.78;98604.34;4994731;28;20546;-77
2021/12/17 04:26:46;;;;;;;3.08;1.13;;;;;;;1.30;88.07;98606.84;4978696;28;20132;-77
2021/12/17 04:29:21;;;;;;;3.38;1.20;;;;;;;1.33;87.88;98606.88;4979659;28;20377;-77
2021/12/17 04:31:52;;;;;;;3.55;1.20;;;;;;;1.33;87.84;98607.75;4978559;28;20065;-77
2021/12/17 04:34:19;;;;;;;2.25;1.38;;;;;;;1.39;88.04;98615.50;4993863;28;20048;-77
2021/12/17 04:36:47;;;;;;;;;;;;;;;1.39;88.19;98612.97;4995067;28;20092;-77
2021/12/17 04:39:21;;;;;;;4.78;1.42;;;;;;;1.30;87.39;98617.91;5010567;28;19928;-77
2021/12/17 04:41:54;;;;;;;3.35;1.70;;;;;;;1.35;87.65;98613.75;4978575;28;20044;-77
2021/12/17 04:57:40;;;;;;;4.30;2.60;;;;;;;1.20;87.85;98626.28;4996709;28;20049;-75
2021/12/17 05:00:09;;;;;;;4.85;2.30;;;;;;;1.18;88.33;98639.00;4978397;28;20133;-76
2021/12/17 05:02:44;;;;;;;5.38;2.42;;;;;;;1.09;88.62;98638.00;4993877;28;20559;-78
2021/12/17 05:05:11;;;;;;;4.13;2.33;;;;;;;1.16;89.10;98639.84;4978418;28;20055;-78
2021/12/17 05:07:46;;;;;;;3.50;2.25;;;;;;;1.16;89.07;98637.28;4978514;28;20034;-78
2021/12/17 05:18:28;;;;;;;5.25;2.85;;;;;;;1.13;88.61;98632.97;4996585;28;20064;-78
2021/12/17 05:21:03;;;;;;;3.83;2.58;;;;;;;1.19;88.53;98637.31;4995566;28;20504;-79
2021/12/17 05:23:40;;;;;;;3.80;2.45;;;;;;;1.21;88.54;98638.22;5009895;28;20046;-79
2021/12/17 05:26:09;;;;;;;5.75;2.65;;;;;;;1.21;88.51;98649.28;4993625;28;20118;-78
2021/12/17 05:28:39;;;;;;;5.68;2.30;;;;;;;1.14;88.12;98651.69;4993620;28;20033;-77
2021/12/17 05:31:06;;;;;;;3.97;2.58;;;;;;;1.21;88.79;98653.53;4993654;28;20042;-77
2021/12/17 05:33:38;;;;;;;3.88;2.30;;;;;;;1.11;88.06;98651.66;5010021;28;20037;-77
2021/12/17 05:36:06;;;;;;;4.50;2.42;;;;;;;1.00;88.11;98662.53;5009867;28;20038;-78
2021/12/17 05:38:32;;;;;;;3.97;2.13;;;;;;;0.97;88.53;98667.59;4984570;28;20466;-77
2021/12/17 05:40:58;;;;;;;3.40;2.00;;;;;;;0.94;88.99;98664.97;4977337;28;20046;-78
2021/12/17 05:43:36;;;;;;;5.07;2.00;;;;;;;0.97;88.96;98672.72;4993593;28;20499;-78
2021/12/17 05:46:08;;;;;;;3.80;2.10;;;;;;;0.95;89.01;98681.16;4993651;28;20511;-79
2021/12/17 05:48:34;;;;;;;2.50;1.70;;;;;;;1.10;89.39;98680.56;4977257;28;20045;-76
2021/12/17 05:51:01;;;;;;;4.20;1.85;;;;;;;1.00;88.74;98675.28;4977004;28;20465;-77
2021/12/17 05:53:28;;;;;;;4.28;1.80;;;;;;;1.04;88.79;98671.13;4993501;28;20595;-77
2021/12/17 05:55:55;;;;;;;8.18;4.70;;;;;;;1.04;88.58;98685.56;4993326;28;20485;-78
2021/12/17 05:58:25;;;;;;;10.65;6.93;;;;;;;1.02;88.12;98685.56;4977787;28;20049;-77
2021/12/17 06:00:51;;;;;;;3.85;2.40;;;;;;;1.03;88.25;98674.50;4961335;28;20424;-77
2021/12/17 06:03:47;;;;;;;4.68;2.40;;;;;;;1.14;88.35;98688.31;4993513;28;20060;-77
2021/12/17 06:06:23;;;;;;;4.45;2.97;;;;;;;1.15;88.38;98687.50;4993726;28;20042;-79
2021/12/17 06:08:49;;;;;;;4.13;2.80;;;;;;;1.10;87.56;98681.47;4992094;28;20073;-78
2021/12/17 06:11:15;;;;;;;5.47;3.20;;;;;;;1.10;87.42;98678.00;4997371;28;20053;-77
2021/12/17 06:13:41;;;;;;;4.05;2.60;;;;;;;1.05;87.10;98675.38;4981421;28;20204;-78
2021/12/17 06:16:06;;;;;;;7.00;3.38;;;;;;;0.96;87.23;98676.09;4981206;28;20117;-78
2021/12/17 06:18:32;;;;;;;6.32;3.33;;;;;;;0.97;87.51;98670.16;5013707;28;20084;-78
2021/12/17 06:20:58;;;;;;;6.60;3.45;;;;;;;1.00;87.40;98675.28;4997200;28;20034;-79
2021/12/17 06:23:28;;;;;;;5.63;3.40;;;;;;;0.98;87.30;98681.22;5013375;28;20056;-78
2021/12/17 06:25:54;;;;;;;7.78;3.90;;;;;;;1.06;87.52;98689.03;4996970;28;20037;-80
2021/12/17 06:28:20;;;;;;;6.88;3.65;;;;;;;1.07;87.49;98691.59;5013606;28;20048;-78
2021/12/17 06:30:47;;;;;;;4.82;3.75;;;;;;;1.11;87.03;98690.84;4981192;28;20149;-77
2021/12/17 06:33:21;;;;;;;8.02;4.45;;;;;;;1.01;86.61;98692.38;4997279;28;20136;-78
2021/12/17 06:35:47;;;;;;;6.65;4.10;;;;;;;1.00;87.04;98705.94;5013251;28;20042;-76
2021/12/17 06:38:13;;;;;;;7.03;3.90;;;;;;;1.01;86.95;98696.63;4980324;28;20057;-78
2021/12/17 06:40:40;;;;;;;6.72;3.83;;;;;;;1.09;86.71;98700.16;4980596;28;20115;-79
2021/12/17 06:43:06;;;;;;;7.57;4.30;;;;;;;1.09;86.42;98700.16;4996902;28;20037;-78
2021/12/17 06:48:20;;;;;;;21.42;12.98;;;;;;;1.08;86.39;98707.78;5012820;28;20042;-79
2021/12/17 06:57:31;;;;;;;12.10;4.18;;;;;;;1.11;86.13;98703.59;5013225;28;19924;-78
2021/12/17 07:00:37;;;;;;;7.80;3.72;;;;;;;1.07;86.96;98712.03;5002566;28;20108;-78
2021/12/17 07:07:09;;;;;;;4.75;3.33;;;;;;;1.09;85.95;98710.38;5012903;28;20204;-79
2021/12/17 07:20:53;;;;;;;9.98;5.25;;;;;;;1.09;86.94;98729.94;4996140;28;20033;-77
2021/12/17 07:23:03;;;;;;;5.97;3.70;;;;;;;1.08;86.75;98730.78;5008752;28;20421;-78
2021/12/17 07:33:39;;;;;;;4.32;2.85;;;;;;;1.02;87.11;98734.94;5012302;28;20033;-77
2021/12/17 07:39:26;;;;;;;4.68;2.72;;;;;;;1.21;87.39;98745.50;4953430;28;20141;-79
2021/12/17 07:41:55;;;;;;;5.18;2.70;;;;;;;1.22;86.47;98742.09;4960344;28;20042;-80
2021/12/17 07:44:44;;;;;;;5.97;3.22;;;;;;;1.26;86.27;98751.56;4979035;28;20054;-78
2021/12/17 07:47:20;;;;;;;4.93;3.75;;;;;;;1.25;86.61;98748.13;4992343;28;20532;-78
2021/12/17 07:50:06;;;;;;;8.98;4.65;;;;;;;1.27;86.51;98749.00;4978850;28;20050;-77
2021/12/17 07:52:35;;;;;;;9.02;5.30;;;;;;;1.28;86.67;98749.88;4975842;28;20085;-78
2021/12/17 07:55:00;;;;;;;9.65;5.30;;;;;;;1.26;86.17;98749.84;4976216;28;20030;-78
2021/12/17 07:57:26;;;;;;;9.52;6.50;;;;;;;1.27;86.04;98750.72;4976095;28;20528;-77
2021/12/17 07:59:53;;;;;;;9.77;6.50;;;;;;;1.33;86.14;98752.50;4960389;28;20400;-79
2021/12/17 08:02:19;;;;;;;11.18;6.57;;;;;;;1.32;86.35;98755.91;4975959;28;20137;-80
2021/12/17 08:04:52;;;;;;;9.90;5.47;;;;;;;1.32;86.80;98758.47;4976052;28;20038;-80
2021/12/17 08:07:20;;;;;;;9.77;6.38;;;;;;;1.30;86.54;98761.00;4976652;28;20492;-78
2021/12/17 08:09:49;;;;;;;8.80;5.63;;;;;;;1.22;86.79;98762.53;4976195;28;20065;-78
2021/12/17 08:12:16;;;;;;;7.22;5.28;;;;;;;1.14;87.26;98766.63;4944024;28;20034;-78
2021/12/17 08:14:54;;;;;;;10.30;5.85;;;;;;;1.12;87.33;98761.50;4975487;28;20511;-78
2021/12/17 08:25:28;;;;;;;9.40;5.07;;;;;;;1.22;87.45;98765.97;4975386;28;20124;-78
2021/12/17 08:28:04;;;;;;;7.47;4.88;;;;;;;1.29;87.94;98779.72;4990340;28;20053;-78
2021/12/17 08:30:38;;;;;;;10.27;6.40;;;;;;;1.27;87.92;98777.13;4960427;28;20049;-78
2021/12/17 08:33:12;;;;;;;8.07;4.53;;;;;;;1.38;87.73;98761.16;4961030;28;20073;-78
2021/12/17 08:35:39;;;;;;;6.03;4.28;;;;;;;1.50;87.46;98764.75;4975733;28;20100;-79
2021/12/17 08:38:12;;;;;;;6.72;4.85;;;;;;;1.52;86.59;98759.69;4949985;28;20050;-80
2021/12/17 08:40:38;;;;;;;7.15;4.63;;;;;;;1.53;86.00;98756.28;4992036;28;20042;-80
2021/12/17 08:43:05;;;;;;;9.88;4.70;;;;;;;1.53;85.98;98758.84;4975961;28;20034;-79
2021/12/17 08:45:39;;;;;;;7.97;4.82;;;;;;;1.53;85.79;98753.75;4976758;28;20045;-83
2021/12/17 08:48:24;;;;;;;8.23;4.82;;;;;;;1.58;85.55;98746.16;4993298;28;20053;-78
2021/12/17 08:51:02;;;;;;;9.90;5.35;;;;;;;1.66;85.03;98759.94;4975207;28;20038;-78
2021/12/17 08:53:29;;;;;;;11.07;5.47;;;;;;;1.68;84.15;98763.34;4974974;28;20063;-78
2021/12/17 08:55:55;;;;;;;9.32;5.60;;;;;;;1.62;84.27;98768.38;5007439;28;20121;-78
2021/12/17 08:58:22;;;;;;;9.98;4.97;;;;;;;1.59;84.38;98755.53;4991268;28;20049;-79
2021/12/17 09:00:48;;;;;;;9.25;4.97;;;;;;;1.62;85.35;98758.16;4975081;28;20034;-76
2021/12/17 09:03:22;;;;;;;6.45;4.60;;;;;;;1.57;85.35;98762.31;4975129;28;20068;-81
2021/12/17 09:06:09;;;;;;;6.07;4.28;;;;;;;1.57;85.63;98767.44;4975208;28;20128;-78
2021/12/17 09:08:45;;;;;;;7.55;4.28;;;;;;;1.56;85.55;98769.13;4977300;28;20524;-79
2021/12/17 09:11:11;;;;;;;8.63;4.10;;;;;;;1.51;85.52;98763.94;4991137;28;20030;-77
2021/12/17 09:13:59;;;;;;;6.20;4.05;;;;;;;1.48;85.71;98765.59;4992157;28;20112;-77
2021/12/17 09:16:50;;;;;;;7.47;4.28;;;;;;;1.44;86.03;98766.34;4991278;28;20517;-79
2021/12/17 09:19:17;;;;;;;5.07;3.60;;;;;;;1.45;86.34;98776.59;4974396;28;20042;-78
2021/12/17 09:21:53;;;;;;;4.97;3.10;;;;;;;1.42;86.49;98765.44;4974953;28;20501;-78
2021/12/17 09:24:42;;;;;;;6.22;4.68;;;;;;;1.20;86.28;98772.75;4974902;28;20069;-77
2021/12/17 09:27:28;;;;;;;6.90;4.57;;;;;;;1.09;87.08;98770.81;4984682;28;20417;-79
2021/12/17 09:30:10;;;;;;;7.40;4.32;;;;;;;1.04;87.21;98768.16;4990936;28;20062;-78
2021/12/17 09:32:38;;;;;;;6.78;4.18;;;;;;;1.12;87.93;98775.97;4975207;28;20181;-81
2021/12/17 09:35:04;;;;;;;8.95;4.72;;;;;;;1.15;87.94;98778.59;4991390;28;20069;-79
2021/12/17 09:37:30;;;;;;;5.80;3.63;;;;;;;1.18;87.51;98781.19;4992751;28;20035;-81
2021/12/17 09:39:56;;;;;;;6.60;3.92;;;;;;;1.08;87.28;98774.19;4994205;28;20038;-79
2021/12/17 09:42:22;;;;;;;6.13;3.55;;;;;;;1.15;87.18;98773.50;5010660;28;20412;-79
2021/12/17 09:44:47;;;;;;;6.72;3.72;;;;;;;1.23;87.58;98766.81;4977200;28;20045;-78
2021/12/17 09:47:13;;;;;;;8.50;4.32;;;;;;;1.18;87.03;98765.88;4994396;28;20466;-80
2021/12/17 09:49:39;;;;;;;7.28;3.95;;;;;;;1.20;87.13;98769.34;4994523;28;20034;-78
2021/12/17 09:52:05;;;;;;;7.38;4.60;;;;;;;1.23;87.24;98764.25;5010832;28;20160;-77
2021/12/17 09:54:30;;;;;;;8.15;4.63;;;;;;;1.37;86.67;98767.91;5010715;28;20034;-81
2021/12/17 09:56:56;;;;;;;8.00;5.03;;;;;;;1.39;86.38;98766.28;5012001;28;20045;-78
2021/12/17 09:59:22;;;;;;;6.75;4.30;;;;;;;1.44;86.72;98767.22;5012169;28;20045;-79
2021/12/17 10:01:48;;;;;;;9.88;5.18;;;;;;;1.48;86.47;98774.09;5011955;28;20037;-80
2021/12/17 10:04:14;;;;;;;;;;;;;;;1.41;86.32;98768.84;4994416;28;20049;-78
2021/12/17 10:06:40;;;;;;;6.75;4.30;;;;;;;1.32;86.44;98769.53;4993787;28;20310;-81
2021/12/17 10:09:06;;;;;;;9.43;4.07;;;;;;;1.33;87.07;98765.28;5012159;28;20063;-79
2021/12/17 10:11:32;;;;;;;6.57;4.60;;;;;;;1.41;87.20;98773.97;4994637;28;20411;-80
2021/12/17 10:14:18;;;;;;;8.10;4.40;;;;;;;1.30;86.56;98763.56;4996199;28;20041;-79
2021/12/17 10:16:44;;;;;;;9.00;4.25;;;;;;;1.40;87.04;98768.00;5012600;28;20045;-78
2021/12/17 10:19:09;;;;;;;7.57;4.15;;;;;;;1.45;86.65;98768.94;4994723;28;20484;-79
2021/12/17 10:21:38;;;;;;;6.47;4.47;;;;;;;1.49;86.89;98769.84;4993843;28;20041;-80
2021/12/17 10:24:04;;;;;;;8.85;5.45;;;;;;;1.50;86.45;98764.75;4977880;28;20041;-81
2021/12/17 10:26:40;;;;;;;9.02;6.07;;;;;;;1.55;86.48;98774.19;5010136;28;20535;-80
2021/12/17 10:29:05;;;;;;;12.23;6.88;;;;;;;1.61;86.08;98772.63;5011447;28;20046;-78
2021/12/17 10:31:33;;;;;;;9.85;5.47;;;;;;;1.67;86.11;98775.28;5011779;28;20034;-78
2021/12/17 10:34:04;;;;;;;11.73;7.55;;;;;;;1.67;85.30;98776.97;4961851;28;20137;-78
2021/12/17 10:36:33;;;;;;;12.50;6.32;;;;;;;1.69;85.56;98775.28;4993983;28;20120;-79
2021/12/17 10:39:05;;;;;;;10.35;6.30;;;;;;;1.72;85.29;98770.25;4994267;28;20219;-79
2021/12/17 10:41:34;;;;;;;13.90;7.45;;;;;;;1.81;85.73;98774.66;4994883;28;20092;-79
2021/12/17 10:44:07;;;;;;;13.30;7.95;;;;;;;1.88;85.17;98774.78;4980062;28;20467;-78
2021/12/17 10:46:35;;;;;;;12.98;7.10;;;;;;;1.85;84.06;98779.00;4993454;28;20064;-77
2021/12/17 10:49:13;;;;;;;12.63;7.13;;;;;;;1.81;83.89;98779.78;4977569;28;20030;-77
2021/12/17 10:54:17;;;;;;;14.27;6.93;;;;;;;1.92;84.86;98768.00;5010304;28;20034;-79
2021/12/17 10:56:46;;;;;;;13.00;7.40;;;;;;;1.89;84.19;98776.50;5013123;28;20140;-77
2021/12/17 10:59:18;;;;;;;12.13;6.85;;;;;;;1.88;83.82;98767.13;5015153;28;20088;-76
2021/12/17 11:01:57;;;;;;;9.98;6.07;;;;;;;1.94;83.85;98767.22;4997772;28;20125;-77
2021/12/17 11:04:34;;;;;;;11.90;6.93;;;;;;;2.00;84.04;98772.41;4997543;28;20042;-79
2021/12/17 11:07:10;;;;;;;11.40;7.18;;;;;;;1.84;84.00;98775.56;4997093;28;20049;-77
2021/12/17 11:09:58;;;;;;;9.32;6.28;;;;;;;1.92;84.39;98775.69;4997244;28;20087;-81
2021/12/17 11:12:28;;;;;;;12.43;6.57;;;;;;;1.85;83.84;98779.84;5012859;28;20462;-78
2021/12/17 11:15:12;;;;;;;10.98;6.85;;;;;;;1.88;84.45;98777.34;4996674;28;20052;-78
2021/12/17 11:17:39;;;;;;;11.75;6.93;;;;;;;1.98;84.36;98781.78;5013334;28;20045;-78
2021/12/17 11:20:10;;;;;;;11.55;6.93;;;;;;;1.97;84.21;98774.94;5014320;28;20065;-77
2021/12/17 11:22:37;;;;;;;14.75;7.97;;;;;;;1.98;83.79;98779.22;5013337;28;20415;-80
2021/12/17 11:25:03;;;;;;;12.80;7.60;;;;;;;1.91;83.69;98776.53;5012989;28;20030;-77
2021/12/17 11:27:29;;;;;;;11.18;6.30;;;;;;;1.85;84.05;98777.28;5012898;28;20492;-78
2021/12/17 11:29:55;;;;;;;;;;;;;;;1.83;84.30;98781.50;4996942;28;20030;-80
2021/12/17 11:32:20;;;;;;;11.18;6.78;;;;;;;1.92;84.24;98783.34;5012581;28;20336;-78
2021/12/17 11:34:46;;;;;;;11.95;7.07;;;;;;;1.88;84.16;98794.38;5014487;28;20041;-79
2021/12/17 11:37:12;;;;;;;12.52;7.07;;;;;;;1.88;83.90;98792.69;4996364;28;20034;-78
2021/12/17 11:39:44;;;;;;;14.55;7.88;;;;;;;1.82;84.16;98799.38;4976205;28;20050;-76
2021/12/17 11:42:25;;;;;;;12.98;7.25;;;;;;;1.81;84.56;98800.22;4960416;28;20054;-78
2021/12/17 11:45:23;;;;;;;12.02;7.57;;;;;;;1.81;84.63;98801.09;4992034;28;20046;-80
2021/12/17 11:47:41;;;;;;;17.08;7.32;;;;;;;1.79;84.57;98800.22;4993435;28;20041;-77
2021/12/17 11:50:08;;;;;;;10.13;6.75;;;;;;;1.83;84.66;98801.09;4976826;28;20049;-80
2021/12/17 11:52:34;;;;;;;11.75;7.45;;;;;;;1.80;84.18;98794.25;4976625;28;20130;-80
2021/12/17 11:55:21;;;;;;;12.75;7.15;;;;;;;1.80;84.14;98799.38;4992925;28;20046;-80
2021/12/17 11:57:48;;;;;;;12.80;7.22;;;;;;;1.74;84.59;98795.03;4994205;28;20035;-78
2021/12/17 12:00:15;;;;;;;12.23;6.22;;;;;;;1.69;84.87;98793.19;4976437;28;20048;-78
2021/12/17 12:02:48;;;;;;;12.25;6.57;;;;;;;1.72;84.52;98806.91;4992373;28;20497;-77
2021/12/17 12:05:53;;;;;;;11.05;6.20;;;;;;;1.73;84.14;98806.06;4992874;28;20512;-80
2021/12/17 12:08:50;;;;;;;10.82;6.65;;;;;;;1.73;84.17;98805.19;4965542;28;20125;-79
2021/12/17 12:11:26;;;;;;;12.20;6.30;;;;;;;1.72;84.29;98811.16;4994133;28;20038;-81
2021/12/17 12:13:53;;;;;;;12.27;6.32;;;;;;;1.69;84.48;98805.97;4992614;28;20799;-78
2021/12/17 12:16:21;;;;;;;12.38;6.97;;;;;;;1.69;84.26;98808.53;4992406;28;20145;-78
2021/12/17 12:18:51;;;;;;;10.43;6.70;;;;;;;1.69;84.74;98816.19;4976365;28;20038;-80
2021/12/17 12:21:18;;;;;;;9.18;5.78;;;;;;;1.73;84.37;98823.94;4976080;28;20046;-81
2021/12/17 12:23:48;;;;;;;10.65;6.22;;;;;;;1.71;84.25;98827.34;4976184;28;20041;-78
2021/12/17 12:26:26;;;;;;;11.80;6.22;;;;;;;1.70;84.74;98833.28;4993623;28;20065;-80
2021/12/17 12:28:54;;;;;;;10.30;6.00;;;;;;;1.72;84.44;98834.16;4976386;28;20046;-78
2021/12/17 12:31:27;;;;;;;9.95;6.00;;;;;;;1.68;84.83;98828.13;4975992;28;20042;-80
2021/12/17 12:34:06;;;;;;;9.48;5.50;;;;;;;1.70;84.50;98833.28;4993047;28;20117;-80
2021/12/17 12:37:00;;;;;;;8.73;5.13;;;;;;;1.71;84.68;98829.88;4993326;28;20049;-82
2021/12/17 12:39:33;;;;;;;10.15;5.25;;;;;;;1.69;84.46;98836.66;4993404;28;20107;-78
2021/12/17 12:42:13;;;;;;;8.93;5.47;;;;;;;1.72;84.59;98841.84;5011231;28;20531;-80
2021/12/17 12:44:42;;;;;;;11.77;5.60;;;;;;;1.78;84.96;98847.03;4995414;28;20049;-81
2021/12/17 12:47:29;;;;;;;7.40;5.15;;;;;;;1.79;84.25;98843.69;5011587;28;20032;-79
2021/12/17 12:50:04;;;;;;;;;;;;;;;1.71;83.85;98850.34;4982708;28;20050;-77
2021/12/17 12:52:30;;;;;;;11.00;5.50;;;;;;;1.76;84.59;98861.50;5011389;28;19921;-77
2021/12/17 12:54:58;;;;;;;10.93;6.03;;;;;;;1.70;84.43;98858.84;4995048;28;20096;-78
2021/12/17 12:57:32;;;;;;;11.30;4.93;;;;;;;1.68;84.33;98865.63;5011370;28;20042;-77
2021/12/17 13:00:00;;;;;;;8.18;5.07;;;;;;;1.61;84.05;98861.25;5011816;28;20479;-78
2021/12/17 13:02:26;;;;;;;11.88;6.68;;;;;;;1.61;84.37;98874.03;5012443;28;20100;-78
2021/12/17 13:04:53;;;;;;;11.98;7.57;;;;;;;1.58;84.91;98869.69;4994680;28;20485;-78
2021/12/17 13:07:37;;;;;;;13.95;7.20;;;;;;;1.59;84.57;98870.56;4995107;28;20079;-79
2021/12/17 13:10:17;;;;;;;8.85;6.15;;;;;;;1.52;84.86;98867.91;5010841;28;20548;-82
2021/12/17 13:12:48;;;;;;;10.77;6.25;;;;;;;1.56;84.88;98867.94;5010719;28;20037;-80
2021/12/17 13:15:38;;;;;;;7.97;5.63;;;;;;;1.53;85.32;98871.31;4994792;28;20061;-79
2021/12/17 13:23:51;;;;;;;12.23;6.20;;;;;;;1.56;85.10;98881.59;4995824;28;20049;-79
2021/12/17 13:26:19;;;;;;;11.85;6.80;;;;;;;1.57;85.33;98885.03;4994456;28;20171;-82
2021/12/17 13:29:04;;;;;;;9.90;6.60;;;;;;;1.54;84.96;98878.13;4994475;28;20042;-79
2021/12/17 13:31:44;;;;;;;13.70;6.65;;;;;;;1.58;85.21;98874.81;4978881;28;20047;-79
2021/12/17 13:34:14;;;;;;;14.50;6.80;;;;;;;1.58;84.89;98884.19;4994421;28;20046;-79
2021/12/17 13:37:08;;;;;;;11.05;6.28;;;;;;;1.57;85.43;98885.03;5010189;28;20415;-79
2021/12/17 13:40:10;;;;;;;12.73;6.57;;;;;;;1.56;85.03;98881.59;5010402;28;20057;-78
2021/12/17 13:42:36;;;;;;;10.23;5.97;;;;;;;1.56;85.33;98888.38;4976216;28;20045;-81
2021/12/17 13:45:13;;;;;;;8.38;5.15;;;;;;;1.56;85.56;98886.72;5010248;28;20050;-79
2021/12/17 13:47:40;;;;;;;7.82;4.55;;;;;;;1.58;85.09;98890.16;4994741;28;20041;-80
2021/12/17 13:50:10;;;;;;;8.80;4.63;;;;;;;1.62;84.85;98896.19;4994545;28;20153;-77
2021/12/17 13:52:53;;;;;;;6.63;4.18;;;;;;;1.61;85.18;98894.47;5010655;28;20456;-78
2021/12/17 13:55:24;;;;;;;6.70;3.95;;;;;;;1.62;84.48;98893.63;4978001;28;20496;-79
2021/12/17 13:57:50;;;;;;;6.32;4.03;;;;;;;1.62;84.85;98897.06;4993625;28;20038;-78
2021/12/17 14:00:24;;;;;;;9.73;4.68;;;;;;;1.59;84.57;98901.25;4993864;28;20048;-78
2021/12/17 14:02:54;;;;;;;5.10;3.40;;;;;;;1.60;84.72;98895.28;4993192;28;20050;-79
2021/12/17 14:05:24;;;;;;;6.63;3.50;;;;;;;1.60;84.79;98897.84;5010201;28;20137;-78
2021/12/17 14:07:51;;;;;;;5.47;3.78;;;;;;;1.60;84.72;98905.50;5009706;28;20050;-78
2021/12/17 14:10:19;;;;;;;7.82;4.03;;;;;;;1.62;84.73;98897.06;4976300;28;20033;-78
2021/12/17 14:12:45;;;;;;;6.68;3.95;;;;;;;1.63;84.06;98909.00;5007929;28;20037;-78
2021/12/17 14:15:12;;;;;;;7.13;3.80;;;;;;;1.60;84.30;98908.06;4993670;28;20125;-78
2021/12/17 14:17:39;;;;;;;7.43;4.28;;;;;;;1.61;83.97;98910.66;5009963;28;20044;-78
2021/12/17 14:20:11;;;;;;;7.20;3.88;;;;;;;1.60;83.98;98908.06;4993739;28;20049;-78
2021/12/17 14:22:39;;;;;;;6.70;4.57;;;;;;;1.63;84.15;98910.69;5010252;28;20125;-78
2021/12/17 14:25:26;;;;;;;6.25;4.40;;;;;;;1.62;83.77;98914.09;5011438;28;20045;-77
2021/12/17 14:27:53;;;;;;;6.95;4.10;;;;;;;1.60;83.82;98916.59;5011186;28;20129;-78
2021/12/17 14:30:26;;;;;;;;;;;;;;;1.62;83.96;98912.38;5011670;28;20515;-78
2021/12/17 14:32:52;;;;;;;11.00;6.50;;;;;;;1.64;83.85;98922.63;5013923;28;19917;-79
2021/12/17 14:35:40;;;;;;;10.85;5.18;;;;;;;1.59;83.93;98914.88;4997370;28;20061;-79
2021/12/17 14:38:06;;;;;;;11.30;4.93;;;;;;;1.55;84.16;98910.53;5014445;28;20072;-78
2021/12/17 14:40:41;;;;;;;8.85;5.43;;;;;;;1.58;83.96;98912.31;4980950;28;20132;-78
2021/12/17 14:43:23;;;;;;;8.35;4.22;;;;;;;1.66;84.05;98915.88;4997081;28;20408;-78
2021/12/17 14:46:14;;;;;;;5.78;4.35;;;;;;;1.59;83.59;98916.56;5013193;28;20052;-79
2021/12/17 14:48:52;;;;;;;9.05;5.03;;;;;;;1.58;83.87;98918.28;5014181;28;20041;-78
2021/12/17 15:04:42;;;;;;;;;;;;;;;1.52;82.14;98938.59;4997182;28;20121;-78
2021/12/17 15:07:08;;;;;;;10.43;4.90;;;;;;;1.51;82.11;98932.63;4996611;28;20059;-80
2021/12/17 15:09:36;;;;;;;9.10;4.63;;;;;;;1.55;82.18;98937.78;4996746;28;20065;-80
2021/12/17 15:12:12;;;;;;;6.43;4.57;;;;;;;1.49;82.03;98936.84;4996529;28;20041;-79
2021/12/17 15:14:38;;;;;;;8.80;5.25;;;;;;;1.51;82.52;98942.88;4996315;28;20049;-79
2021/12/17 15:17:04;;;;;;;15.80;9.95;;;;;;;1.49;82.92;98936.84;5014310;28;20045;-80
2021/12/17 15:19:31;;;;;;;10.27;6.05;;;;;;;1.52;82.89;98954.81;4996468;28;20361;-80